カンゲルルススアーク の空港の天気 - METARとTAF

カンゲルルススアーク空港 ( BGSF / SFJ ) - グリーンランド カンゲルルススアーク
飛行場実況気象(Metar)
観測時間02/17 11:50 WGT (02/17 14:50 UTC)
風向・風速東北東 4m/s
視程-
天気現象
なし
気温-25℃
湿度69%
気圧1012hPa
METARBGSF 171450Z AUTO 06007KT 9999NDV NCD M25/M29 Q1012
過去の天気等 Google飛行場航空写真 Wunderground天気予報

過去48時間のMETAR

飛行場予報(TAF)
発表時間: 2/17 08:02 WGT (2/17 11:02 UTC)
予報対象時間: 17日9時 WGT ~ 17日17時 WGT
風向・風速東北東 3m/s
視程10km以上
少しの雲 雲底高度 2130m
17日15時 WGT ~ 17日17時 WGT に一時的に
全天の8割程度の雲 雲底高度 2130m
TAF BGSF 171102Z 1712/1720 06005KT 9999 FEW070
TEMPO 1718/1720 BKN070